Terminal Aerodrome Forecast
Issued by NWS

Home | Current Version | Previous Version | Text Only | Print | Product List | Glossary On
Versions: 1 2 3 4 5 6 7 8 9 10 11 12 13 14 15 16 17 18 19 20 21 22
014
FTUS44 KTSA 072341
TAFMLC
TAF
KMLC 072341Z 0800/0824 02011G18KT 4SM BR SCT008 OVC015
      TEMPO 0800/0804 2SM -DZ BR BKN008
     FM080400 01011G18KT P6SM OVC025
     FM080600 36011G18KT P6SM OVC050
     FM081000 36012KT P6SM BKN250
     FM081400 36013G21KT P6SM SCT250=

USA.gov is the U.S. government's official web portal to all federal, state and local government web resources and services.